RU-0374 weather

CLOSED Svetlograd Airfield
Svetlograd, Stavropol Krai, Russia

Public forecast

Using degrees Celsius for public forecast. Weather courtesy of forecast.io.

Closest aviation weather report (METAR) to Svetlograd Airfield

Closest report is Stavropol Shpakovskoye Airport, 30.5 nm (56.5 km) SW. Retrieved 2019/10/18 12:30 UTC (0 seconds ago):

URMT 181230Z 36003MPS CAVOK 22/07 Q1018 R07/010070 NOSIG RMK QFE723

Closest aviation forecast (TAF) to Svetlograd Airfield

Forecast is more than 12 hours old.

Closest forecast is Stavropol Shpakovskoye Airport, 30.5 nm (56.5 km) SW. Retrieved 2019/08/03 03:15 UTC (3 months ago):

TAF URMT 030200Z 0303/0321 31005G12MPS 9999 SCT020